createdAt,value
2018-10-11T00:00:49.903Z,13.80
2018-10-11T00:04:01.747Z,15.85
2018-10-11T00:07:13.403Z,13.18
2018-10-11T00:10:25.254Z,15.78
2018-10-11T00:13:36.745Z,14.70
2018-10-11T00:16:48.291Z,14.07
2018-10-11T00:19:59.570Z,10.93
2018-10-11T00:23:11.131Z,14.40
2018-10-11T00:26:22.418Z,15.60
2018-10-11T00:29:34.094Z,15.45
2018-10-11T00:32:45.174Z,13.30
2018-10-11T00:35:56.441Z,14.40
2018-10-11T00:39:09.350Z,15.45
2018-10-11T00:42:20.853Z,15.20
2018-10-11T00:45:31.955Z,12.53
2018-10-11T00:48:43.827Z,14.25
2018-10-11T00:51:55.473Z,15.88
2018-10-11T00:55:07.694Z,15.05
2018-10-11T00:58:18.965Z,16.00
2018-10-11T01:01:30.645Z,16.82
2018-10-11T01:04:41.918Z,12.28
2018-10-11T01:07:53.682Z,16.10
2018-10-11T01:11:06.150Z,17.55
2018-10-11T01:14:18.201Z,14.83
2018-10-11T01:17:29.434Z,16.48
2018-10-11T01:20:41.403Z,15.65
2018-10-11T01:23:53.416Z,14.38
2018-10-11T01:27:05.467Z,17.77
2018-10-11T01:30:16.735Z,17.17
2018-10-11T01:33:28.504Z,15.35
2018-10-11T01:36:39.875Z,15.85
2018-10-11T01:39:51.878Z,16.73
2018-10-11T01:43:06.135Z,14.33
2018-10-11T01:46:17.170Z,14.85
2018-10-11T01:49:29.220Z,20.55
2018-10-11T01:52:40.320Z,15.60
2018-10-11T01:55:51.370Z,11.75
2018-10-11T01:59:02.642Z,17.95
2018-10-11T02:02:14.621Z,18.02
2018-10-11T02:05:27.217Z,16.02
2018-10-11T02:08:38.954Z,17.30
2018-10-11T02:11:50.378Z,15.55
2018-10-11T02:15:01.492Z,16.20
2018-10-11T02:18:12.559Z,17.65
2018-10-11T02:21:24.368Z,18.00
2018-10-11T02:24:35.889Z,16.82
2018-10-11T02:27:47.776Z,18.30
2018-10-11T02:30:59.185Z,18.85
2018-10-11T02:34:10.499Z,19.55
2018-10-11T02:37:22.431Z,17.80
2018-10-11T02:40:33.783Z,16.20
2018-10-11T02:43:44.855Z,16.97
2018-10-11T02:46:56.193Z,16.90
2018-10-11T02:50:08.244Z,17.35
2018-10-11T02:53:20.103Z,14.95
2018-10-11T02:56:31.194Z,16.05
2018-10-11T02:59:42.611Z,15.65
2018-10-11T03:02:54.108Z,15.32
2018-10-11T03:06:06.033Z,18.42
2018-10-11T03:09:18.824Z,15.43
2018-10-11T03:12:30.758Z,15.75
2018-10-11T03:15:42.886Z,15.40
2018-10-11T03:18:54.417Z,16.20
2018-10-11T03:22:05.617Z,16.90
2018-10-11T03:25:16.883Z,13.75
2018-10-11T03:28:28.987Z,16.00
2018-10-11T03:31:40.440Z,13.45
2018-10-11T03:34:51.484Z,13.13
2018-10-11T03:38:03.232Z,14.85
2018-10-11T03:41:15.157Z,15.65
2018-10-11T03:44:26.896Z,14.03
2018-10-11T03:47:38.078Z,10.13
2018-10-11T03:50:49.517Z,14.18
2018-10-11T03:54:00.598Z,11.25
2018-10-11T03:57:11.986Z,14.03
2018-10-11T04:00:23.049Z,10.55
2018-10-11T04:03:34.632Z,9.78
2018-10-11T04:06:45.837Z,9.63
2018-10-11T04:09:58.514Z,10.23
2018-10-11T04:13:09.894Z,11.35
2018-10-11T04:16:21.475Z,13.72
2018-10-11T04:19:32.953Z,12.35
2018-10-11T04:22:44.195Z,12.90
2018-10-11T04:25:55.211Z,10.70
2018-10-11T04:29:07.213Z,14.33
2018-10-11T04:32:18.339Z,11.05
2018-10-11T04:35:29.799Z,12.90
2018-10-11T04:38:41.115Z,14.78
2018-10-11T04:41:52.403Z,11.43
2018-10-11T04:45:03.726Z,11.95
2018-10-11T04:48:15.513Z,12.20
2018-10-11T04:51:27.365Z,14.25
2018-10-11T04:54:38.437Z,12.78
2018-10-11T04:57:49.933Z,9.83
2018-10-11T05:01:01.425Z,14.98
2018-10-11T05:04:12.683Z,14.93
2018-10-11T05:07:24.132Z,10.20
2018-10-11T05:10:35.945Z,9.80
2018-10-11T05:13:49.577Z,11.00
2018-10-11T05:17:01.240Z,11.75
2018-10-11T05:20:13.404Z,13.13
2018-10-11T05:23:25.060Z,10.80
2018-10-11T05:26:37.433Z,11.73
2018-10-11T05:29:49.142Z,9.38
2018-10-11T05:33:01.116Z,11.05
2018-10-11T05:36:12.949Z,15.45
2018-10-11T05:39:24.387Z,9.53
2018-10-11T05:42:36.579Z,9.90
2018-10-11T05:45:56.669Z,6.17
2018-10-11T05:49:08.668Z,11.15
2018-10-11T05:52:20.787Z,10.35
2018-10-11T05:55:32.529Z,11.28
2018-10-11T05:58:44.496Z,6.17
2018-10-11T06:01:56.203Z,10.45
2018-10-11T06:05:07.383Z,9.43
2018-10-11T06:08:19.539Z,11.12
2018-10-11T06:11:31.216Z,9.98
2018-10-11T06:14:42.790Z,9.48
2018-10-11T06:17:54.163Z,11.28
2018-10-11T06:21:06.254Z,8.15
2018-10-11T06:24:17.835Z,8.68
2018-10-11T06:27:31.221Z,10.55
2018-10-11T06:30:42.553Z,11.73
2018-10-11T06:33:54.847Z,7.90
2018-10-11T06:37:06.566Z,9.28
2018-10-11T06:40:18.236Z,8.75
2018-10-11T06:43:29.515Z,9.08
2018-10-11T06:46:40.904Z,9.40
2018-10-11T06:49:52.413Z,11.57
2018-10-11T06:53:05.102Z,8.48
2018-10-11T06:56:16.803Z,9.20
2018-10-11T06:59:28.482Z,7.60
2018-10-11T07:02:39.746Z,8.80
2018-10-11T07:05:51.622Z,5.17
2018-10-11T07:09:02.687Z,8.95
2018-10-11T07:12:14.171Z,9.38
2018-10-11T07:15:25.581Z,9.08
2018-10-11T07:18:37.122Z,7.62
2018-10-11T07:21:48.345Z,7.78
2018-10-11T07:24:59.891Z,9.65
2018-10-11T07:28:11.566Z,8.33
2018-10-11T07:31:23.552Z,9.35
2018-10-11T07:34:35.590Z,7.58
2018-10-11T07:37:47.536Z,8.78
2018-10-11T07:40:59.039Z,8.20
2018-10-11T07:44:10.758Z,8.60
2018-10-11T07:47:22.814Z,7.10
2018-10-11T07:50:34.293Z,7.08
2018-10-11T07:53:46.037Z,10.78
2018-10-11T07:57:05.058Z,10.15
2018-10-11T08:00:16.441Z,8.83
2018-10-11T08:03:28.022Z,7.53
2018-10-11T08:06:39.598Z,6.25
2018-10-11T08:09:50.887Z,5.37
2018-10-11T08:13:02.832Z,7.20
2018-10-11T08:16:14.045Z,7.78
2018-10-11T08:19:25.800Z,8.83
2018-10-11T08:22:38.176Z,12.40
2018-10-11T08:25:49.939Z,9.18
2018-10-11T08:29:00.903Z,10.25
2018-10-11T08:32:12.057Z,9.35
2018-10-11T08:35:23.495Z,9.90
2018-10-11T08:38:35.538Z,8.33
2018-10-11T08:41:47.086Z,10.60
2018-10-11T08:44:58.411Z,9.83
2018-10-11T08:48:10.213Z,10.50
2018-10-11T08:51:22.295Z,11.08
2018-10-11T08:54:38.732Z,9.00
2018-10-11T08:57:50.631Z,8.43
2018-10-11T09:01:01.782Z,8.98
2018-10-11T09:04:13.110Z,10.25
2018-10-11T09:07:25.106Z,19.95
2018-10-11T09:10:38.516Z,8.68
2018-10-11T09:13:49.325Z,8.23
2018-10-11T09:17:01.034Z,8.75
2018-10-11T09:20:13.000Z,9.35
2018-10-11T09:23:25.137Z,8.78
2018-10-11T09:26:37.411Z,9.08
2018-10-11T09:29:48.461Z,6.35
2018-10-11T09:32:59.641Z,11.33
2018-10-11T09:36:11.671Z,9.33
2018-10-11T09:39:22.955Z,7.22
2018-10-11T09:42:34.069Z,8.73
2018-10-11T09:45:45.540Z,10.35
2018-10-11T09:48:56.970Z,12.05
2018-10-11T09:52:08.751Z,8.90
2018-10-11T09:55:19.968Z,11.78
2018-10-11T09:58:31.925Z,9.25
2018-10-11T10:01:46.387Z,9.65
2018-10-11T10:04:59.492Z,8.78
2018-10-11T10:08:10.686Z,10.03
2018-10-11T10:11:21.714Z,9.48
2018-10-11T10:14:33.435Z,10.13
2018-10-11T10:17:45.095Z,10.30
2018-10-11T10:20:56.495Z,9.13
2018-10-11T10:24:07.842Z,8.90
2018-10-11T10:27:19.057Z,9.23
2018-10-11T10:30:35.637Z,10.88
2018-10-11T10:33:47.253Z,11.15
2018-10-11T10:36:58.403Z,9.13
2018-10-11T10:40:11.203Z,10.60
2018-10-11T10:43:22.816Z,9.83
2018-10-11T10:46:35.335Z,9.68
2018-10-11T10:49:46.629Z,10.72
2018-10-11T10:52:57.614Z,9.95
2018-10-11T10:56:09.497Z,10.48
2018-10-11T10:59:21.089Z,9.25
2018-10-11T11:02:33.869Z,8.98
2018-10-11T11:05:45.007Z,7.83
2018-10-11T11:08:56.203Z,12.05
2018-10-11T11:12:09.182Z,10.90
2018-10-11T11:15:20.558Z,11.12
2018-10-11T11:18:31.979Z,11.70
2018-10-11T11:21:43.659Z,9.58
2018-10-11T11:24:55.690Z,11.18
2018-10-11T11:28:07.538Z,9.20
2018-10-11T11:31:23.270Z,7.95
2018-10-11T11:34:34.944Z,13.65
2018-10-11T11:37:46.194Z,12.30
2018-10-11T11:40:58.233Z,8.48
2018-10-11T11:44:10.218Z,13.13
2018-10-11T11:47:21.552Z,10.78
2018-10-11T11:50:33.635Z,9.65
2018-10-11T11:53:45.246Z,9.43
2018-10-11T11:56:57.192Z,13.32
2018-10-11T12:00:09.694Z,9.50
2018-10-11T12:03:21.459Z,14.13
2018-10-11T12:06:33.068Z,10.82
2018-10-11T12:09:44.809Z,10.25
2018-10-11T12:13:01.004Z,10.32
2018-10-11T12:16:12.618Z,9.50
2018-10-11T12:19:23.748Z,10.48
2018-10-11T12:22:35.099Z,10.53
2018-10-11T12:25:46.222Z,8.73
2018-10-11T12:28:57.903Z,11.28
2018-10-11T12:32:09.705Z,9.98
2018-10-11T12:35:22.904Z,12.05
2018-10-11T12:38:34.780Z,7.37
2018-10-11T12:41:46.210Z,8.08
2018-10-11T12:44:57.308Z,9.98
2018-10-11T12:48:08.734Z,12.80
2018-10-11T12:51:19.821Z,9.40
2018-10-11T12:54:31.511Z,12.73
2018-10-11T12:57:43.396Z,11.23
2018-10-11T13:00:54.219Z,10.70
2018-10-11T13:04:05.259Z,11.10
2018-10-11T13:07:17.270Z,10.28
2018-10-11T13:10:28.190Z,9.90
2018-10-11T13:13:41.555Z,10.73
2018-10-11T13:16:51.435Z,9.77
2018-10-11T13:20:03.031Z,11.40
2018-10-11T13:23:16.913Z,10.70
2018-10-11T13:26:25.363Z,11.00
2018-10-11T13:29:36.862Z,10.30
2018-10-11T13:32:48.415Z,10.63
2018-10-11T13:36:00.097Z,10.13
2018-10-11T13:39:11.526Z,9.87
2018-10-11T13:42:23.485Z,12.93
2018-10-11T13:45:34.953Z,12.65
2018-10-11T13:48:46.584Z,10.23
2018-10-11T13:51:57.806Z,11.60
2018-10-11T13:55:12.149Z,11.20
2018-10-11T13:58:21.237Z,13.17
2018-10-11T14:01:32.686Z,13.90
2018-10-11T14:04:44.322Z,12.13
2018-10-11T14:07:55.092Z,13.17
2018-10-11T14:11:08.434Z,11.67
2018-10-11T14:14:19.728Z,11.73
2018-10-11T14:17:31.528Z,11.30
2018-10-11T14:20:42.710Z,14.20
2018-10-11T14:23:54.383Z,10.33
2018-10-11T14:27:05.435Z,12.90
2018-10-11T14:30:16.850Z,13.50
2018-10-11T14:33:28.058Z,12.87
2018-10-11T14:36:39.120Z,14.33
2018-10-11T14:39:50.732Z,11.05
2018-10-11T14:43:01.760Z,11.70
2018-10-11T14:46:13.294Z,13.30
2018-10-11T14:49:26.037Z,13.83
2018-10-11T14:52:37.532Z,14.33
2018-10-11T14:55:49.571Z,10.93
2018-10-11T14:59:01.154Z,11.77
2018-10-11T15:02:13.102Z,10.38
2018-10-11T15:05:24.770Z,12.60
2018-10-11T15:08:36.783Z,11.50
2018-10-11T15:11:48.639Z,11.70
2018-10-11T15:15:00.494Z,11.75
2018-10-11T15:18:13.096Z,11.40
2018-10-11T15:21:24.421Z,13.88
2018-10-11T15:24:36.503Z,9.95
2018-10-11T15:27:48.182Z,12.25
2018-10-11T15:31:00.580Z,12.60
2018-10-11T15:34:12.198Z,12.28
2018-10-11T15:37:23.337Z,12.33
2018-10-11T15:40:35.434Z,11.30
2018-10-11T15:43:47.229Z,13.90
2018-10-11T15:47:00.395Z,10.98
2018-10-11T15:50:12.759Z,16.42
2018-10-11T15:53:24.980Z,12.80
2018-10-11T15:56:39.806Z,12.35
2018-10-11T15:59:52.584Z,10.05
2018-10-11T16:03:05.038Z,12.98
2018-10-11T16:06:16.461Z,11.40
2018-10-11T16:09:28.608Z,12.58
2018-10-11T16:12:41.215Z,18.30
2018-10-11T16:15:53.157Z,11.85
2018-10-11T16:19:05.964Z,16.77
2018-10-11T16:22:19.576Z,14.30
2018-10-11T16:25:31.636Z,15.20
2018-10-11T16:28:44.371Z,13.35
2018-10-11T16:31:55.867Z,13.40
2018-10-11T16:35:07.989Z,11.35
2018-10-11T16:38:21.232Z,13.68
2018-10-11T16:41:32.693Z,12.60
2018-10-11T16:44:44.773Z,11.95
2018-10-11T16:47:57.540Z,11.08
2018-10-11T16:51:09.426Z,12.40
2018-10-11T16:54:20.997Z,13.53
2018-10-11T16:57:33.081Z,10.28
2018-10-11T17:00:45.181Z,11.18
2018-10-11T17:03:59.721Z,11.33
2018-10-11T17:07:12.383Z,11.78
2018-10-11T17:10:25.826Z,13.45
2018-10-11T17:13:39.822Z,10.48
2018-10-11T17:16:54.720Z,11.20
2018-10-11T17:20:10.689Z,10.30
2018-10-11T17:23:24.201Z,9.08
2018-10-11T17:26:36.916Z,12.10
2018-10-11T17:29:49.823Z,10.85
2018-10-11T17:33:03.173Z,10.60
2018-10-11T17:36:15.249Z,12.82
2018-10-11T17:39:27.875Z,10.55
2018-10-11T17:43:10.782Z,9.58
2018-10-11T17:46:24.464Z,10.05
2018-10-11T17:49:38.569Z,10.25
2018-10-11T17:52:51.750Z,11.08
2018-10-11T17:56:06.267Z,10.45
2018-10-11T17:59:18.317Z,12.63
2018-10-11T18:02:31.027Z,10.60
2018-10-11T18:05:45.817Z,12.47
2018-10-11T18:08:59.611Z,12.23
2018-10-11T18:12:14.484Z,13.35
2018-10-11T18:15:26.386Z,12.10
2018-10-11T18:18:38.391Z,12.55
2018-10-11T18:21:50.010Z,9.70
2018-10-11T18:25:01.778Z,12.10
2018-10-11T18:28:13.580Z,10.88
2018-10-11T18:31:25.376Z,10.95
2018-10-11T18:34:36.520Z,12.20
2018-10-11T18:37:47.617Z,11.08
2018-10-11T18:40:59.320Z,10.78
2018-10-11T18:44:11.278Z,10.63
2018-10-11T18:47:22.823Z,10.58
2018-10-11T18:50:34.653Z,14.28
2018-10-11T18:53:46.690Z,12.10
2018-10-11T18:56:57.954Z,11.05
2018-10-11T19:00:09.577Z,11.08
2018-10-11T19:03:21.535Z,11.65
2018-10-11T19:06:33.545Z,13.80
2018-10-11T19:09:44.838Z,12.93
2018-10-11T19:12:56.279Z,11.18
2018-10-11T19:16:08.279Z,13.30
2018-10-11T19:19:19.458Z,8.80
2018-10-11T19:22:31.100Z,10.72
2018-10-11T19:25:42.748Z,12.55
2018-10-11T19:28:53.978Z,12.25
2018-10-11T19:32:05.817Z,11.12
2018-10-11T19:35:17.060Z,12.00
2018-10-11T19:38:28.545Z,14.55
2018-10-11T19:41:40.349Z,12.78
2018-10-11T19:44:52.176Z,13.50
2018-10-11T19:48:03.482Z,11.93
2018-10-11T19:51:14.554Z,11.20
2018-10-11T19:54:25.820Z,11.40
2018-10-11T19:57:37.463Z,13.32
2018-10-11T20:00:49.151Z,11.85
2018-10-11T20:04:01.041Z,10.03
2018-10-11T20:07:12.952Z,15.30
2018-10-11T20:10:24.583Z,11.60
2018-10-11T20:13:36.231Z,13.60
2018-10-11T20:16:47.318Z,13.55
2018-10-11T20:19:58.663Z,12.18
2018-10-11T20:23:10.185Z,10.50
2018-10-11T20:26:21.625Z,14.45
2018-10-11T20:29:33.491Z,13.85
2018-10-11T20:32:44.961Z,14.53
2018-10-11T20:35:56.327Z,12.40
2018-10-11T20:39:09.716Z,11.50
2018-10-11T20:42:21.203Z,14.50
2018-10-11T20:45:32.759Z,13.50
2018-10-11T20:48:44.467Z,14.38
2018-10-11T20:51:56.055Z,13.98
2018-10-11T20:55:08.161Z,12.60
2018-10-11T20:58:19.622Z,15.80
2018-10-11T21:01:30.951Z,13.20
2018-10-11T21:04:42.870Z,12.30
2018-10-11T21:07:54.531Z,13.70
2018-10-11T21:11:06.190Z,11.90
2018-10-11T21:14:17.685Z,14.18
2018-10-11T21:17:29.443Z,13.15
2018-10-11T21:20:41.053Z,13.72
2018-10-11T21:23:52.478Z,14.07
2018-10-11T21:27:04.214Z,13.30
2018-10-11T21:30:15.334Z,16.95
2018-10-11T21:33:27.278Z,10.72
2018-10-11T21:36:38.577Z,15.53
2018-10-11T21:39:50.079Z,14.40
2018-10-11T21:43:01.478Z,15.40
2018-10-11T21:46:13.008Z,13.95
2018-10-11T21:49:25.088Z,11.45
2018-10-11T21:52:36.361Z,13.48
2018-10-11T21:55:47.988Z,16.17
2018-10-11T21:58:59.660Z,12.68
2018-10-11T22:02:11.268Z,12.88
2018-10-11T22:05:22.288Z,12.35
2018-10-11T22:08:33.862Z,11.80
2018-10-11T22:11:45.609Z,13.50
2018-10-11T22:14:57.234Z,11.60
2018-10-11T22:18:08.912Z,13.35
2018-10-11T22:21:20.267Z,14.43
2018-10-11T22:24:32.535Z,12.35
2018-10-11T22:27:44.625Z,13.95
2018-10-11T22:30:56.366Z,15.28
2018-10-11T22:34:07.565Z,13.43
2018-10-11T22:37:19.325Z,14.55
2018-10-11T22:40:31.752Z,14.47
2018-10-11T22:43:43.473Z,12.25
2018-10-11T22:46:55.223Z,11.93
2018-10-11T22:50:06.897Z,12.98
2018-10-11T22:53:18.331Z,12.47
2018-10-11T22:56:29.871Z,12.80
2018-10-11T22:59:41.613Z,12.13
2018-10-11T23:02:53.700Z,12.25
2018-10-11T23:06:05.858Z,13.25
2018-10-11T23:09:17.150Z,13.13
2018-10-11T23:12:29.032Z,10.55
2018-10-11T23:15:40.421Z,10.70
2018-10-11T23:18:51.894Z,12.65
2018-10-11T23:22:03.039Z,11.90
2018-10-11T23:25:14.751Z,10.60
2018-10-11T23:28:26.226Z,12.63
2018-10-11T23:31:37.969Z,12.35
2018-10-11T23:34:49.527Z,10.95
2018-10-11T23:38:01.211Z,15.43
2018-10-11T23:41:12.405Z,13.98
2018-10-11T23:44:24.206Z,9.93
2018-10-11T23:47:35.312Z,11.68
2018-10-11T23:50:46.863Z,10.45
2018-10-11T23:53:57.900Z,12.95
2018-10-11T23:57:10.010Z,14.15
